sensor_id;sensor_type;location;lat;lon;timestamp;P1;durP1;ratioP1;P2;durP2;ratioP2
12970;SDS011;6550;48.650;8.774;2024-01-30T00:02:02;4.10;;;3.23;;
12970;SDS011;6550;48.650;8.774;2024-01-30T00:04:28;3.87;;;3.20;;
12970;SDS011;6550;48.650;8.774;2024-01-30T00:06:55;3.63;;;3.17;;
12970;SDS011;6550;48.650;8.774;2024-01-30T00:09:22;4.30;;;3.30;;
12970;SDS011;6550;48.650;8.774;2024-01-30T00:11:51;4.50;;;3.07;;
12970;SDS011;6550;48.650;8.774;2024-01-30T00:14:18;3.70;;;3.13;;
12970;SDS011;6550;48.650;8.774;2024-01-30T00:16:45;3.33;;;2.93;;
12970;SDS011;6550;48.650;8.774;2024-01-30T00:19:14;3.43;;;2.90;;
12970;SDS011;6550;48.650;8.774;2024-01-30T00:21:41;5.63;;;3.13;;
12970;SDS011;6550;48.650;8.774;2024-01-30T00:24:07;15.50;;;3.30;;
12970;SDS011;6550;48.650;8.774;2024-01-30T00:26:34;3.00;;;2.70;;
12970;SDS011;6550;48.650;8.774;2024-01-30T00:29:03;3.43;;;3.07;;
12970;SDS011;6550;48.650;8.774;2024-01-30T00:31:32;3.30;;;3.00;;
12970;SDS011;6550;48.650;8.774;2024-01-30T00:33:59;3.83;;;3.13;;
12970;SDS011;6550;48.650;8.774;2024-01-30T00:36:26;3.73;;;3.07;;
12970;SDS011;6550;48.650;8.774;2024-01-30T00:38:57;5.37;;;3.33;;
12970;SDS011;6550;48.650;8.774;2024-01-30T00:41:24;3.10;;;2.80;;
12970;SDS011;6550;48.650;8.774;2024-01-30T00:43:51;3.57;;;3.20;;
12970;SDS011;6550;48.650;8.774;2024-01-30T00:46:17;3.27;;;2.97;;
12970;SDS011;6550;48.650;8.774;2024-01-30T00:48:44;5.80;;;3.40;;
12970;SDS011;6550;48.650;8.774;2024-01-30T00:51:13;5.80;;;2.97;;
12970;SDS011;6550;48.650;8.774;2024-01-30T00:53:41;3.27;;;2.97;;
12970;SDS011;6550;48.650;8.774;2024-01-30T00:56:10;3.83;;;2.90;;
12970;SDS011;6550;48.650;8.774;2024-01-30T00:58:39;3.93;;;3.30;;
12970;SDS011;6550;48.650;8.774;2024-01-30T01:01:06;3.00;;;2.70;;
12970;SDS011;6550;48.650;8.774;2024-01-30T01:03:33;3.90;;;3.13;;
12970;SDS011;6550;48.650;8.774;2024-01-30T01:06:00;3.07;;;2.67;;
12970;SDS011;6550;48.650;8.774;2024-01-30T01:08:27;4.77;;;3.10;;
12970;SDS011;6550;48.650;8.774;2024-01-30T01:10:56;3.63;;;2.97;;
12970;SDS011;6550;48.650;8.774;2024-01-30T01:13:25;5.47;;;3.17;;
12970;SDS011;6550;48.650;8.774;2024-01-30T01:15:52;4.00;;;3.00;;
12970;SDS011;6550;48.650;8.774;2024-01-30T01:18:19;7.07;;;3.13;;
12970;SDS011;6550;48.650;8.774;2024-01-30T01:20:46;3.93;;;2.93;;
12970;SDS011;6550;48.650;8.774;2024-01-30T01:23:13;4.18;;;3.20;;
12970;SDS011;6550;48.650;8.774;2024-01-30T01:25:39;3.10;;;2.80;;
12970;SDS011;6550;48.650;8.774;2024-01-30T01:28:06;3.40;;;2.90;;
12970;SDS011;6550;48.650;8.774;2024-01-30T01:30:33;2.87;;;2.63;;
12970;SDS011;6550;48.650;8.774;2024-01-30T01:33:02;3.73;;;3.00;;
12970;SDS011;6550;48.650;8.774;2024-01-30T01:35:29;4.37;;;3.20;;
12970;SDS011;6550;48.650;8.774;2024-01-30T01:37:59;4.07;;;2.50;;
12970;SDS011;6550;48.650;8.774;2024-01-30T01:40:26;3.53;;;3.10;;
12970;SDS011;6550;48.650;8.774;2024-01-30T01:42:56;3.27;;;2.83;;
12970;SDS011;6550;48.650;8.774;2024-01-30T01:45:23;3.47;;;2.97;;
12970;SDS011;6550;48.650;8.774;2024-01-30T01:47:50;3.30;;;3.00;;
12970;SDS011;6550;48.650;8.774;2024-01-30T01:50:18;3.57;;;3.10;;
12970;SDS011;6550;48.650;8.774;2024-01-30T01:52:47;3.87;;;3.20;;
12970;SDS011;6550;48.650;8.774;2024-01-30T01:55:15;5.00;;;3.37;;
12970;SDS011;6550;48.650;8.774;2024-01-30T01:57:48;6.13;;;2.90;;
12970;SDS011;6550;48.650;8.774;2024-01-30T02:00:15;3.70;;;3.13;;
12970;SDS011;6550;48.650;8.774;2024-01-30T02:02:42;3.43;;;3.10;;
12970;SDS011;6550;48.650;8.774;2024-01-30T02:05:11;4.57;;;3.00;;
12970;SDS011;6550;48.650;8.774;2024-01-30T02:07:40;5.50;;;3.33;;
12970;SDS011;6550;48.650;8.774;2024-01-30T02:10:08;3.37;;;2.80;;
12970;SDS011;6550;48.650;8.774;2024-01-30T02:12:36;3.13;;;2.80;;
12970;SDS011;6550;48.650;8.774;2024-01-30T02:15:03;4.13;;;3.00;;
12970;SDS011;6550;48.650;8.774;2024-01-30T02:17:34;4.03;;;3.07;;
12970;SDS011;6550;48.650;8.774;2024-01-30T02:20:01;3.47;;;2.90;;
12970;SDS011;6550;48.650;8.774;2024-01-30T02:22:28;2.97;;;2.67;;
12970;SDS011;6550;48.650;8.774;2024-01-30T02:24:55;3.00;;;2.47;;
12970;SDS011;6550;48.650;8.774;2024-01-30T02:27:22;3.90;;;3.13;;
12970;SDS011;6550;48.650;8.774;2024-01-30T02:29:49;2.93;;;2.67;;
12970;SDS011;6550;48.650;8.774;2024-01-30T02:32:18;2.87;;;2.67;;
12970;SDS011;6550;48.650;8.774;2024-01-30T02:34:44;5.90;;;2.83;;
12970;SDS011;6550;48.650;8.774;2024-01-30T02:37:14;3.33;;;2.63;;
12970;SDS011;6550;48.650;8.774;2024-01-30T02:39:43;3.23;;;2.90;;
12970;SDS011;6550;48.650;8.774;2024-01-30T02:42:12;3.60;;;2.70;;
12970;SDS011;6550;48.650;8.774;2024-01-30T02:44:41;2.90;;;2.47;;
12970;SDS011;6550;48.650;8.774;2024-01-30T02:47:08;3.10;;;2.63;;
12970;SDS011;6550;48.650;8.774;2024-01-30T02:49:35;3.17;;;2.70;;
12970;SDS011;6550;48.650;8.774;2024-01-30T02:52:02;2.97;;;2.63;;
12970;SDS011;6550;48.650;8.774;2024-01-30T02:54:34;3.90;;;2.97;;
12970;SDS011;6550;48.650;8.774;2024-01-30T02:57:00;3.23;;;2.90;;
12970;SDS011;6550;48.650;8.774;2024-01-30T02:59:29;3.10;;;2.80;;
12970;SDS011;6550;48.650;8.774;2024-01-30T03:01:59;2.60;;;2.40;;
12970;SDS011;6550;48.650;8.774;2024-01-30T03:04:28;2.90;;;2.37;;
12970;SDS011;6550;48.650;8.774;2024-01-30T03:06:56;3.83;;;2.97;;
12970;SDS011;6550;48.650;8.774;2024-01-30T03:09:23;3.17;;;2.83;;
12970;SDS011;6550;48.650;8.774;2024-01-30T03:11:52;2.60;;;2.30;;
12970;SDS011;6550;48.650;8.774;2024-01-30T03:14:21;3.00;;;2.67;;
12970;SDS011;6550;48.650;8.774;2024-01-30T03:16:48;3.13;;;2.57;;
12970;SDS011;6550;48.650;8.774;2024-01-30T03:19:17;3.50;;;2.70;;
12970;SDS011;6550;48.650;8.774;2024-01-30T03:21:45;3.20;;;2.90;;
12970;SDS011;6550;48.650;8.774;2024-01-30T03:24:14;4.27;;;2.67;;
12970;SDS011;6550;48.650;8.774;2024-01-30T03:26:43;3.17;;;2.87;;
12970;SDS011;6550;48.650;8.774;2024-01-30T03:29:10;3.00;;;2.67;;
12970;SDS011;6550;48.650;8.774;2024-01-30T03:31:37;3.65;;;2.85;;
12970;SDS011;6550;48.650;8.774;2024-01-30T03:34:04;4.53;;;2.80;;
12970;SDS011;6550;48.650;8.774;2024-01-30T03:36:33;3.93;;;2.63;;
12970;SDS011;6550;48.650;8.774;2024-01-30T03:39:03;3.20;;;2.67;;
12970;SDS011;6550;48.650;8.774;2024-01-30T03:41:29;5.57;;;3.07;;
12970;SDS011;6550;48.650;8.774;2024-01-30T03:43:59;3.30;;;2.83;;
12970;SDS011;6550;48.650;8.774;2024-01-30T03:46:31;4.67;;;2.70;;
12970;SDS011;6550;48.650;8.774;2024-01-30T03:48:57;3.83;;;2.80;;
12970;SDS011;6550;48.650;8.774;2024-01-30T03:51:24;4.67;;;2.83;;
12970;SDS011;6550;48.650;8.774;2024-01-30T03:53:51;5.47;;;2.80;;
12970;SDS011;6550;48.650;8.774;2024-01-30T03:56:18;3.93;;;2.77;;
12970;SDS011;6550;48.650;8.774;2024-01-30T03:58:45;8.70;;;3.10;;
12970;SDS011;6550;48.650;8.774;2024-01-30T04:01:14;4.13;;;3.07;;
12970;SDS011;6550;48.650;8.774;2024-01-30T04:03:41;4.23;;;2.67;;
12970;SDS011;6550;48.650;8.774;2024-01-30T04:06:10;9.90;;;3.10;;
12970;SDS011;6550;48.650;8.774;2024-01-30T04:08:39;6.17;;;2.90;;
12970;SDS011;6550;48.650;8.774;2024-01-30T04:11:06;4.23;;;3.00;;
12970;SDS011;6550;48.650;8.774;2024-01-30T04:13:35;3.67;;;2.73;;
12970;SDS011;6550;48.650;8.774;2024-01-30T04:16:02;3.43;;;2.87;;
12970;SDS011;6550;48.650;8.774;2024-01-30T04:18:32;3.93;;;2.77;;
12970;SDS011;6550;48.650;8.774;2024-01-30T04:21:03;3.47;;;2.77;;
12970;SDS011;6550;48.650;8.774;2024-01-30T04:23:30;4.57;;;2.97;;
12970;SDS011;6550;48.650;8.774;2024-01-30T04:25:59;4.73;;;3.03;;
12970;SDS011;6550;48.650;8.774;2024-01-30T04:28:26;3.10;;;2.80;;
12970;SDS011;6550;48.650;8.774;2024-01-30T04:30:56;2.87;;;2.37;;
12970;SDS011;6550;48.650;8.774;2024-01-30T04:33:23;3.30;;;2.60;;
12970;SDS011;6550;48.650;8.774;2024-01-30T04:35:52;3.27;;;2.40;;
12970;SDS011;6550;48.650;8.774;2024-01-30T04:38:19;2.87;;;2.57;;
12970;SDS011;6550;48.650;8.774;2024-01-30T04:40:45;4.00;;;3.53;;
12970;SDS011;6550;48.650;8.774;2024-01-30T04:43:15;2.97;;;2.40;;
12970;SDS011;6550;48.650;8.774;2024-01-30T04:45:42;4.13;;;2.60;;
12970;SDS011;6550;48.650;8.774;2024-01-30T04:48:09;3.00;;;2.70;;
12970;SDS011;6550;48.650;8.774;2024-01-30T04:50:38;3.23;;;2.53;;
12970;SDS011;6550;48.650;8.774;2024-01-30T04:53:05;2.50;;;2.30;;
12970;SDS011;6550;48.650;8.774;2024-01-30T04:55:31;3.33;;;2.40;;
12970;SDS011;6550;48.650;8.774;2024-01-30T04:57:58;3.50;;;2.50;;
12970;SDS011;6550;48.650;8.774;2024-01-30T05:00:30;4.13;;;3.00;;
12970;SDS011;6550;48.650;8.774;2024-01-30T05:02:57;2.60;;;2.40;;
12970;SDS011;6550;48.650;8.774;2024-01-30T05:05:24;3.90;;;2.63;;
12970;SDS011;6550;48.650;8.774;2024-01-30T05:07:51;3.10;;;2.50;;
12970;SDS011;6550;48.650;8.774;2024-01-30T05:10:20;3.40;;;2.93;;
12970;SDS011;6550;48.650;8.774;2024-01-30T05:12:46;3.17;;;2.50;;
12970;SDS011;6550;48.650;8.774;2024-01-30T05:15:13;2.57;;;2.37;;
12970;SDS011;6550;48.650;8.774;2024-01-30T05:17:43;4.30;;;2.67;;
12970;SDS011;6550;48.650;8.774;2024-01-30T05:20:12;3.33;;;2.30;;
12970;SDS011;6550;48.650;8.774;2024-01-30T05:22:39;2.80;;;2.43;;
12970;SDS011;6550;48.650;8.774;2024-01-30T05:25:14;2.97;;;2.70;;
12970;SDS011;6550;48.650;8.774;2024-01-30T05:27:41;3.47;;;2.40;;
12970;SDS011;6550;48.650;8.774;2024-01-30T05:30:08;2.57;;;2.30;;
12970;SDS011;6550;48.650;8.774;2024-01-30T05:32:37;3.10;;;2.40;;
12970;SDS011;6550;48.650;8.774;2024-01-30T05:35:06;4.37;;;2.20;;
12970;SDS011;6550;48.650;8.774;2024-01-30T05:37:36;4.50;;;1.93;;
12970;SDS011;6550;48.650;8.774;2024-01-30T05:40:03;2.83;;;2.20;;
12970;SDS011;6550;48.650;8.774;2024-01-30T05:42:31;2.40;;;2.20;;
12970;SDS011;6550;48.650;8.774;2024-01-30T05:45:00;2.20;;;2.00;;
12970;SDS011;6550;48.650;8.774;2024-01-30T05:47:29;1.83;;;1.73;;
12970;SDS011;6550;48.650;8.774;2024-01-30T05:49:56;1.80;;;1.70;;
12970;SDS011;6550;48.650;8.774;2024-01-30T05:52:22;2.00;;;1.80;;
12970;SDS011;6550;48.650;8.774;2024-01-30T05:54:50;8.80;;;2.50;;
12970;SDS011;6550;48.650;8.774;2024-01-30T05:57:18;3.70;;;2.00;;
12970;SDS011;6550;48.650;8.774;2024-01-30T05:59:44;7.63;;;2.10;;
12970;SDS011;6550;48.650;8.774;2024-01-30T06:02:12;8.00;;;2.50;;
12970;SDS011;6550;48.650;8.774;2024-01-30T06:04:39;14.30;;;2.60;;
12970;SDS011;6550;48.650;8.774;2024-01-30T06:07:06;3.77;;;1.90;;
12970;SDS011;6550;48.650;8.774;2024-01-30T06:09:36;6.63;;;2.70;;
12970;SDS011;6550;48.650;8.774;2024-01-30T06:12:05;2.73;;;2.20;;
12970;SDS011;6550;48.650;8.774;2024-01-30T06:14:34;1.97;;;1.73;;
12970;SDS011;6550;48.650;8.774;2024-01-30T06:17:03;2.30;;;2.10;;
12970;SDS011;6550;48.650;8.774;2024-01-30T06:19:31;3.63;;;2.10;;
12970;SDS011;6550;48.650;8.774;2024-01-30T06:21:58;2.10;;;1.80;;
12970;SDS011;6550;48.650;8.774;2024-01-30T06:24:25;2.13;;;1.93;;
12970;SDS011;6550;48.650;8.774;2024-01-30T06:26:51;6.63;;;2.30;;
12970;SDS011;6550;48.650;8.774;2024-01-30T06:29:20;4.43;;;2.07;;
12970;SDS011;6550;48.650;8.774;2024-01-30T06:31:47;4.17;;;2.13;;
12970;SDS011;6550;48.650;8.774;2024-01-30T06:34:16;8.57;;;2.53;;
12970;SDS011;6550;48.650;8.774;2024-01-30T06:36:43;4.37;;;2.00;;
12970;SDS011;6550;48.650;8.774;2024-01-30T06:39:10;2.30;;;2.00;;
12970;SDS011;6550;48.650;8.774;2024-01-30T06:41:37;2.07;;;1.90;;
12970;SDS011;6550;48.650;8.774;2024-01-30T06:44:03;2.87;;;2.10;;
12970;SDS011;6550;48.650;8.774;2024-01-30T06:46:34;4.13;;;1.90;;
12970;SDS011;6550;48.650;8.774;2024-01-30T06:49:01;2.00;;;1.80;;
12970;SDS011;6550;48.650;8.774;2024-01-30T06:51:28;1.80;;;1.70;;
12970;SDS011;6550;48.650;8.774;2024-01-30T06:53:55;4.67;;;2.10;;
12970;SDS011;6550;48.650;8.774;2024-01-30T06:56:24;9.33;;;2.00;;
12970;SDS011;6550;48.650;8.774;2024-01-30T06:58:51;2.00;;;1.80;;
12970;SDS011;6550;48.650;8.774;2024-01-30T07:01:18;2.03;;;1.90;;
12970;SDS011;6550;48.650;8.774;2024-01-30T07:03:46;3.00;;;1.87;;
12970;SDS011;6550;48.650;8.774;2024-01-30T07:06:13;3.70;;;2.60;;
12970;SDS011;6550;48.650;8.774;2024-01-30T07:08:39;2.97;;;2.17;;
12970;SDS011;6550;48.650;8.774;2024-01-30T07:11:06;3.10;;;2.23;;
12970;SDS011;6550;48.650;8.774;2024-01-30T07:13:34;3.30;;;2.27;;
12970;SDS011;6550;48.650;8.774;2024-01-30T07:16:01;2.87;;;2.27;;
12970;SDS011;6550;48.650;8.774;2024-01-30T07:18:28;3.33;;;2.80;;
12970;SDS011;6550;48.650;8.774;2024-01-30T07:20:59;4.43;;;2.67;;
12970;SDS011;6550;48.650;8.774;2024-01-30T07:23:26;5.30;;;2.50;;
12970;SDS011;6550;48.650;8.774;2024-01-30T07:25:55;3.60;;;2.37;;
12970;SDS011;6550;48.650;8.774;2024-01-30T07:28:23;3.03;;;2.40;;
12970;SDS011;6550;48.650;8.774;2024-01-30T07:30:53;4.90;;;2.50;;
12970;SDS011;6550;48.650;8.774;2024-01-30T07:33:19;5.23;;;2.30;;
12970;SDS011;6550;48.650;8.774;2024-01-30T07:35:48;3.67;;;2.40;;
12970;SDS011;6550;48.650;8.774;2024-01-30T07:38:15;4.37;;;2.70;;
12970;SDS011;6550;48.650;8.774;2024-01-30T07:40:42;3.93;;;2.63;;
12970;SDS011;6550;48.650;8.774;2024-01-30T07:43:11;4.70;;;2.27;;
12970;SDS011;6550;48.650;8.774;2024-01-30T07:45:40;2.50;;;2.30;;
12970;SDS011;6550;48.650;8.774;2024-01-30T07:48:07;4.10;;;2.37;;
12970;SDS011;6550;48.650;8.774;2024-01-30T07:50:36;3.80;;;2.90;;
12970;SDS011;6550;48.650;8.774;2024-01-30T07:53:06;3.53;;;2.80;;
12970;SDS011;6550;48.650;8.774;2024-01-30T07:55:32;9.53;;;2.63;;
12970;SDS011;6550;48.650;8.774;2024-01-30T07:57:59;3.17;;;2.57;;
12970;SDS011;6550;48.650;8.774;2024-01-30T08:00:26;3.87;;;2.67;;
12970;SDS011;6550;48.650;8.774;2024-01-30T08:02:55;4.13;;;2.50;;
12970;SDS011;6550;48.650;8.774;2024-01-30T08:05:23;19.67;;;3.13;;
12970;SDS011;6550;48.650;8.774;2024-01-30T08:07:52;4.00;;;2.57;;
12970;SDS011;6550;48.650;8.774;2024-01-30T08:10:21;3.07;;;2.57;;
12970;SDS011;6550;48.650;8.774;2024-01-30T08:12:48;4.10;;;3.10;;
12970;SDS011;6550;48.650;8.774;2024-01-30T08:15:17;4.10;;;3.37;;
12970;SDS011;6550;48.650;8.774;2024-01-30T08:17:44;6.67;;;3.20;;
12970;SDS011;6550;48.650;8.774;2024-01-30T08:20:11;4.07;;;3.13;;
12970;SDS011;6550;48.650;8.774;2024-01-30T08:22:39;3.40;;;3.07;;
12970;SDS011;6550;48.650;8.774;2024-01-30T08:25:08;22.90;;;3.73;;
12970;SDS011;6550;48.650;8.774;2024-01-30T08:27:36;8.30;;;3.53;;
12970;SDS011;6550;48.650;8.774;2024-01-30T08:30:08;5.23;;;3.40;;
12970;SDS011;6550;48.650;8.774;2024-01-30T08:32:37;4.50;;;3.87;;
12970;SDS011;6550;48.650;8.774;2024-01-30T08:35:04;6.87;;;4.73;;
12970;SDS011;6550;48.650;8.774;2024-01-30T08:37:35;19.53;;;6.30;;
12970;SDS011;6550;48.650;8.774;2024-01-30T08:40:07;8.57;;;5.33;;
12970;SDS011;6550;48.650;8.774;2024-01-30T08:42:35;7.13;;;5.47;;
12970;SDS011;6550;48.650;8.774;2024-01-30T08:45:02;6.53;;;5.57;;
12970;SDS011;6550;48.650;8.774;2024-01-30T08:47:31;6.73;;;5.80;;
12970;SDS011;6550;48.650;8.774;2024-01-30T08:50:00;7.75;;;6.80;;
12970;SDS011;6550;48.650;8.774;2024-01-30T08:52:27;9.17;;;6.50;;
12970;SDS011;6550;48.650;8.774;2024-01-30T08:54:54;8.30;;;6.83;;
12970;SDS011;6550;48.650;8.774;2024-01-30T08:57:21;8.20;;;6.77;;
12970;SDS011;6550;48.650;8.774;2024-01-30T08:59:50;9.90;;;6.17;;
12970;SDS011;6550;48.650;8.774;2024-01-30T09:02:17;8.30;;;6.40;;
12970;SDS011;6550;48.650;8.774;2024-01-30T09:04:48;8.20;;;6.77;;
12970;SDS011;6550;48.650;8.774;2024-01-30T09:07:15;7.90;;;6.97;;
12970;SDS011;6550;48.650;8.774;2024-01-30T09:09:42;8.00;;;7.20;;
12970;SDS011;6550;48.650;8.774;2024-01-30T09:12:09;8.20;;;7.23;;
12970;SDS011;6550;48.650;8.774;2024-01-30T09:14:39;8.70;;;7.78;;
12970;SDS011;6550;48.650;8.774;2024-01-30T09:17:07;8.23;;;7.03;;
12970;SDS011;6550;48.650;8.774;2024-01-30T09:19:34;9.13;;;7.00;;
12970;SDS011;6550;48.650;8.774;2024-01-30T09:22:02;8.07;;;6.90;;
12970;SDS011;6550;48.650;8.774;2024-01-30T09:24:31;16.97;;;8.13;;
12970;SDS011;6550;48.650;8.774;2024-01-30T09:26:58;13.97;;;8.03;;
12970;SDS011;6550;48.650;8.774;2024-01-30T09:29:30;10.90;;;7.93;;
12970;SDS011;6550;48.650;8.774;2024-01-30T09:32:02;10.60;;;8.80;;
12970;SDS011;6550;48.650;8.774;2024-01-30T09:34:30;9.73;;;8.07;;
12970;SDS011;6550;48.650;8.774;2024-01-30T09:37:00;10.50;;;8.27;;
12970;SDS011;6550;48.650;8.774;2024-01-30T09:39:26;8.97;;;7.00;;
12970;SDS011;6550;48.650;8.774;2024-01-30T09:45:05;14.40;;;8.73;;
12970;SDS011;6550;48.650;8.774;2024-01-30T09:47:37;10.03;;;8.03;;
12970;SDS011;6550;48.650;8.774;2024-01-30T09:50:11;11.43;;;9.20;;
12970;SDS011;6550;48.650;8.774;2024-01-30T09:52:42;11.87;;;8.40;;
12970;SDS011;6550;48.650;8.774;2024-01-30T09:55:10;10.93;;;8.77;;
12970;SDS011;6550;48.650;8.774;2024-01-30T09:57:41;14.53;;;9.70;;
12970;SDS011;6550;48.650;8.774;2024-01-30T10:00:08;12.93;;;8.77;;
12970;SDS011;6550;48.650;8.774;2024-01-30T10:02:35;11.57;;;8.43;;
12970;SDS011;6550;48.650;8.774;2024-01-30T10:05:02;11.10;;;8.10;;
12970;SDS011;6550;48.650;8.774;2024-01-30T10:07:32;11.77;;;8.43;;
12970;SDS011;6550;48.650;8.774;2024-01-30T10:09:59;11.53;;;8.47;;
12970;SDS011;6550;48.650;8.774;2024-01-30T10:12:26;13.47;;;8.67;;
12970;SDS011;6550;48.650;8.774;2024-01-30T10:14:55;12.02;;;9.13;;
12970;SDS011;6550;48.650;8.774;2024-01-30T10:17:25;12.97;;;8.77;;
12970;SDS011;6550;48.650;8.774;2024-01-30T10:19:59;13.03;;;9.53;;
12970;SDS011;6550;48.650;8.774;2024-01-30T10:22:29;12.53;;;9.03;;
12970;SDS011;6550;48.650;8.774;2024-01-30T10:25:00;14.10;;;9.03;;
12970;SDS011;6550;48.650;8.774;2024-01-30T10:27:33;13.10;;;9.20;;
12970;SDS011;6550;48.650;8.774;2024-01-30T10:30:00;13.90;;;9.43;;
12970;SDS011;6550;48.650;8.774;2024-01-30T10:32:33;15.70;;;10.13;;
12970;SDS011;6550;48.650;8.774;2024-01-30T10:35:00;13.87;;;10.50;;
12970;SDS011;6550;48.650;8.774;2024-01-30T10:37:27;13.07;;;9.73;;
12970;SDS011;6550;48.650;8.774;2024-01-30T10:39:57;12.13;;;9.30;;
12970;SDS011;6550;48.650;8.774;2024-01-30T10:42:28;12.30;;;9.33;;
12970;SDS011;6550;48.650;8.774;2024-01-30T10:45:07;13.63;;;10.30;;
12970;SDS011;6550;48.650;8.774;2024-01-30T10:47:35;11.18;;;9.70;;
12970;SDS011;6550;48.650;8.774;2024-01-30T10:50:05;12.07;;;10.00;;
12970;SDS011;6550;48.650;8.774;2024-01-30T10:52:34;11.93;;;10.20;;
12970;SDS011;6550;48.650;8.774;2024-01-30T10:55:01;11.63;;;10.33;;
12970;SDS011;6550;48.650;8.774;2024-01-30T10:57:36;11.60;;;9.37;;
12970;SDS011;6550;48.650;8.774;2024-01-30T11:00:08;11.43;;;9.30;;
12970;SDS011;6550;48.650;8.774;2024-01-30T11:02:39;11.67;;;9.87;;
12970;SDS011;6550;48.650;8.774;2024-01-30T11:05:07;10.77;;;8.57;;
12970;SDS011;6550;48.650;8.774;2024-01-30T11:07:35;10.23;;;8.87;;
12970;SDS011;6550;48.650;8.774;2024-01-30T11:10:02;9.47;;;7.87;;
12970;SDS011;6550;48.650;8.774;2024-01-30T11:12:31;11.03;;;8.43;;
12970;SDS011;6550;48.650;8.774;2024-01-30T11:15:07;10.40;;;8.33;;
12970;SDS011;6550;48.650;8.774;2024-01-30T11:20:14;10.00;;;8.80;;
12970;SDS011;6550;48.650;8.774;2024-01-30T11:22:49;9.93;;;8.30;;
12970;SDS011;6550;48.650;8.774;2024-01-30T11:25:22;11.17;;;8.40;;
12970;SDS011;6550;48.650;8.774;2024-01-30T11:27:59;10.33;;;8.47;;
12970;SDS011;6550;48.650;8.774;2024-01-30T11:35:32;7.43;;;6.73;;
12970;SDS011;6550;48.650;8.774;2024-01-30T11:38:00;9.53;;;8.03;;
12970;SDS011;6550;48.650;8.774;2024-01-30T11:40:31;8.90;;;7.07;;
12970;SDS011;6550;48.650;8.774;2024-01-30T11:43:03;9.05;;;7.88;;
12970;SDS011;6550;48.650;8.774;2024-01-30T11:45:34;8.53;;;7.47;;
12970;SDS011;6550;48.650;8.774;2024-01-30T11:48:02;9.33;;;7.93;;
12970;SDS011;6550;48.650;8.774;2024-01-30T11:50:33;8.63;;;7.13;;
12970;SDS011;6550;48.650;8.774;2024-01-30T11:53:01;8.37;;;7.17;;
12970;SDS011;6550;48.650;8.774;2024-01-30T11:55:31;10.37;;;7.83;;
12970;SDS011;6550;48.650;8.774;2024-01-30T11:58:03;9.87;;;6.90;;
12970;SDS011;6550;48.650;8.774;2024-01-30T12:00:33;12.83;;;6.87;;
12970;SDS011;6550;48.650;8.774;2024-01-30T12:03:02;8.63;;;6.90;;
12970;SDS011;6550;48.650;8.774;2024-01-30T12:05:30;9.18;;;6.78;;
12970;SDS011;6550;48.650;8.774;2024-01-30T12:08:00;7.63;;;6.80;;
12970;SDS011;6550;48.650;8.774;2024-01-30T12:10:28;7.90;;;7.10;;
12970;SDS011;6550;48.650;8.774;2024-01-30T12:12:56;11.87;;;7.27;;
12970;SDS011;6550;48.650;8.774;2024-01-30T12:15:25;8.63;;;7.70;;
12970;SDS011;6550;48.650;8.774;2024-01-30T12:17:52;8.97;;;7.13;;
12970;SDS011;6550;48.650;8.774;2024-01-30T12:20:30;8.47;;;7.30;;
12970;SDS011;6550;48.650;8.774;2024-01-30T12:22:57;9.67;;;7.83;;
12970;SDS011;6550;48.650;8.774;2024-01-30T12:25:24;9.57;;;7.80;;
12970;SDS011;6550;48.650;8.774;2024-01-30T12:27:54;10.97;;;7.90;;
12970;SDS011;6550;48.650;8.774;2024-01-30T12:30:21;11.40;;;7.90;;
12970;SDS011;6550;48.650;8.774;2024-01-30T12:32:49;9.17;;;7.47;;
12970;SDS011;6550;48.650;8.774;2024-01-30T12:35:19;8.67;;;7.50;;
12970;SDS011;6550;48.650;8.774;2024-01-30T12:37:49;7.87;;;6.70;;
12970;SDS011;6550;48.650;8.774;2024-01-30T12:40:17;8.67;;;7.33;;
12970;SDS011;6550;48.650;8.774;2024-01-30T12:42:46;9.73;;;7.73;;
12970;SDS011;6550;48.650;8.774;2024-01-30T12:45:17;9.73;;;7.53;;
12970;SDS011;6550;48.650;8.774;2024-01-30T12:47:49;10.80;;;8.20;;
12970;SDS011;6550;48.650;8.774;2024-01-30T12:50:21;9.47;;;7.30;;
12970;SDS011;6550;48.650;8.774;2024-01-30T12:52:51;8.20;;;7.30;;
12970;SDS011;6550;48.650;8.774;2024-01-30T12:55:21;12.83;;;8.17;;
12970;SDS011;6550;48.650;8.774;2024-01-30T12:57:48;8.90;;;7.90;;
12970;SDS011;6550;48.650;8.774;2024-01-30T13:00:18;9.53;;;7.37;;
12970;SDS011;6550;48.650;8.774;2024-01-30T13:02:47;8.73;;;7.77;;
12970;SDS011;6550;48.650;8.774;2024-01-30T13:05:16;9.07;;;7.67;;
12970;SDS011;6550;48.650;8.774;2024-01-30T13:07:46;8.70;;;6.27;;
12970;SDS011;6550;48.650;8.774;2024-01-30T13:10:13;8.43;;;6.70;;
12970;SDS011;6550;48.650;8.774;2024-01-30T13:12:40;6.63;;;5.93;;
12970;SDS011;6550;48.650;8.774;2024-01-30T13:15:06;6.97;;;5.83;;
12970;SDS011;6550;48.650;8.774;2024-01-30T13:17:37;7.27;;;6.27;;
12970;SDS011;6550;48.650;8.774;2024-01-30T13:20:04;9.57;;;5.90;;
12970;SDS011;6550;48.650;8.774;2024-01-30T13:22:40;7.27;;;5.50;;
12970;SDS011;6550;48.650;8.774;2024-01-30T13:25:11;5.50;;;4.60;;
12970;SDS011;6550;48.650;8.774;2024-01-30T13:27:44;6.67;;;4.90;;
12970;SDS011;6550;48.650;8.774;2024-01-30T13:30:13;5.32;;;4.60;;
12970;SDS011;6550;48.650;8.774;2024-01-30T13:32:42;6.50;;;4.50;;
12970;SDS011;6550;48.650;8.774;2024-01-30T13:35:10;6.87;;;4.33;;
12970;SDS011;6550;48.650;8.774;2024-01-30T13:37:37;6.90;;;4.23;;
12970;SDS011;6550;48.650;8.774;2024-01-30T13:40:05;7.23;;;4.00;;
12970;SDS011;6550;48.650;8.774;2024-01-30T13:42:39;6.17;;;3.87;;
12970;SDS011;6550;48.650;8.774;2024-01-30T13:45:06;6.63;;;4.07;;
12970;SDS011;6550;48.650;8.774;2024-01-30T13:47:41;6.30;;;3.63;;
12970;SDS011;6550;48.650;8.774;2024-01-30T13:50:10;7.93;;;3.57;;
12970;SDS011;6550;48.650;8.774;2024-01-30T13:52:41;3.97;;;3.40;;
12970;SDS011;6550;48.650;8.774;2024-01-30T13:55:11;5.47;;;3.60;;
12970;SDS011;6550;48.650;8.774;2024-01-30T13:57:38;7.40;;;3.70;;
12970;SDS011;6550;48.650;8.774;2024-01-30T14:00:05;11.60;;;3.53;;
12970;SDS011;6550;48.650;8.774;2024-01-30T14:02:35;7.90;;;3.97;;
12970;SDS011;6550;48.650;8.774;2024-01-30T14:05:07;6.37;;;3.00;;
12970;SDS011;6550;48.650;8.774;2024-01-30T14:07:37;15.07;;;3.77;;
12970;SDS011;6550;48.650;8.774;2024-01-30T14:10:09;14.47;;;3.13;;
12970;SDS011;6550;48.650;8.774;2024-01-30T14:12:41;10.30;;;3.40;;
12970;SDS011;6550;48.650;8.774;2024-01-30T14:15:14;14.73;;;3.00;;
12970;SDS011;6550;48.650;8.774;2024-01-30T14:17:53;13.47;;;3.23;;
12970;SDS011;6550;48.650;8.774;2024-01-30T14:20:25;6.40;;;2.93;;
12970;SDS011;6550;48.650;8.774;2024-01-30T14:22:52;9.23;;;3.65;;
12970;SDS011;6550;48.650;8.774;2024-01-30T14:25:21;6.93;;;3.40;;
12970;SDS011;6550;48.650;8.774;2024-01-30T14:27:51;12.37;;;3.27;;
12970;SDS011;6550;48.650;8.774;2024-01-30T14:30:18;9.30;;;2.83;;
12970;SDS011;6550;48.650;8.774;2024-01-30T14:32:45;8.77;;;3.23;;
12970;SDS011;6550;48.650;8.774;2024-01-30T14:35:13;4.80;;;3.23;;
12970;SDS011;6550;48.650;8.774;2024-01-30T14:37:40;6.77;;;3.17;;
12970;SDS011;6550;48.650;8.774;2024-01-30T14:40:09;5.73;;;3.23;;
12970;SDS011;6550;48.650;8.774;2024-01-30T14:42:41;3.43;;;2.70;;
12970;SDS011;6550;48.650;8.774;2024-01-30T14:45:09;6.60;;;2.97;;
12970;SDS011;6550;48.650;8.774;2024-01-30T14:47:38;4.80;;;3.10;;
12970;SDS011;6550;48.650;8.774;2024-01-30T14:50:08;5.00;;;3.47;;
12970;SDS011;6550;48.650;8.774;2024-01-30T14:52:35;6.57;;;3.83;;
12970;SDS011;6550;48.650;8.774;2024-01-30T14:55:07;4.80;;;2.83;;
12970;SDS011;6550;48.650;8.774;2024-01-30T14:57:34;4.23;;;3.20;;
12970;SDS011;6550;48.650;8.774;2024-01-30T15:00:01;4.50;;;3.63;;
12970;SDS011;6550;48.650;8.774;2024-01-30T15:02:31;5.00;;;3.70;;
12970;SDS011;6550;48.650;8.774;2024-01-30T15:05:00;7.50;;;4.17;;
12970;SDS011;6550;48.650;8.774;2024-01-30T15:07:27;7.93;;;3.90;;
12970;SDS011;6550;48.650;8.774;2024-01-30T15:10:05;5.57;;;3.87;;
12970;SDS011;6550;48.650;8.774;2024-01-30T15:12:33;5.72;;;4.22;;
12970;SDS011;6550;48.650;8.774;2024-01-30T15:15:03;4.07;;;3.60;;
12970;SDS011;6550;48.650;8.774;2024-01-30T15:17:31;5.87;;;3.60;;